sensor_id;sensor_type;location;lat;lon;timestamp;P1;durP1;ratioP1;P2;durP2;ratioP2
31081;SDS011;17737;52.586;13.284;2023-02-15T00:00:13;1.80;;;1.30;;
31081;SDS011;17737;52.586;13.284;2023-02-15T00:02:42;1.65;;;1.40;;
31081;SDS011;17737;52.586;13.284;2023-02-15T00:05:10;1.80;;;1.40;;
31081;SDS011;17737;52.586;13.284;2023-02-15T00:07:38;1.55;;;1.10;;
31081;SDS011;17737;52.586;13.284;2023-02-15T00:10:08;1.30;;;1.00;;
31081;SDS011;17737;52.586;13.284;2023-02-15T00:12:38;1.60;;;1.30;;
31081;SDS011;17737;52.586;13.284;2023-02-15T00:15:06;1.80;;;1.40;;
31081;SDS011;17737;52.586;13.284;2023-02-15T00:17:38;2.35;;;1.67;;
31081;SDS011;17737;52.586;13.284;2023-02-15T00:20:06;2.13;;;1.45;;
31081;SDS011;17737;52.586;13.284;2023-02-15T00:22:35;2.15;;;1.55;;
31081;SDS011;17737;52.586;13.284;2023-02-15T00:25:04;1.98;;;1.50;;
31081;SDS011;17737;52.586;13.284;2023-02-15T00:27:34;2.25;;;1.77;;
31081;SDS011;17737;52.586;13.284;2023-02-15T00:32:32;3.08;;;1.92;;
31081;SDS011;17737;52.586;13.284;2023-02-15T00:35:00;1.85;;;1.40;;
31081;SDS011;17737;52.586;13.284;2023-02-15T00:37:28;2.90;;;1.92;;
31081;SDS011;17737;52.586;13.284;2023-02-15T00:39:56;1.95;;;1.58;;
31081;SDS011;17737;52.586;13.284;2023-02-15T00:42:24;2.20;;;1.58;;
31081;SDS011;17737;52.586;13.284;2023-02-15T00:44:53;1.83;;;1.52;;
31081;SDS011;17737;52.586;13.284;2023-02-15T00:47:21;1.58;;;1.33;;
31081;SDS011;17737;52.586;13.284;2023-02-15T00:52:19;2.28;;;1.50;;
31081;SDS011;17737;52.586;13.284;2023-02-15T00:54:47;2.25;;;1.42;;
31081;SDS011;17737;52.586;13.284;2023-02-15T00:57:15;2.33;;;1.77;;
31081;SDS011;17737;52.586;13.284;2023-02-15T00:59:44;2.00;;;1.60;;
31081;SDS011;17737;52.586;13.284;2023-02-15T01:02:14;2.15;;;1.55;;
31081;SDS011;17737;52.586;13.284;2023-02-15T01:04:42;2.05;;;1.50;;
31081;SDS011;17737;52.586;13.284;2023-02-15T01:07:10;2.10;;;1.83;;
31081;SDS011;17737;52.586;13.284;2023-02-15T01:09:38;2.38;;;1.80;;
31081;SDS011;17737;52.586;13.284;2023-02-15T01:12:06;2.53;;;2.05;;
31081;SDS011;17737;52.586;13.284;2023-02-15T01:14:34;2.50;;;1.95;;
31081;SDS011;17737;52.586;13.284;2023-02-15T01:17:02;2.83;;;1.92;;
31081;SDS011;17737;52.586;13.284;2023-02-15T01:19:32;2.30;;;1.77;;
31081;SDS011;17737;52.586;13.284;2023-02-15T01:22:00;3.15;;;2.20;;
31081;SDS011;17737;52.586;13.284;2023-02-15T01:24:28;2.90;;;2.00;;
31081;SDS011;17737;52.586;13.284;2023-02-15T01:26:56;2.72;;;1.92;;
31081;SDS011;17737;52.586;13.284;2023-02-15T01:29:24;2.95;;;2.10;;
31081;SDS011;17737;52.586;13.284;2023-02-15T01:31:54;2.72;;;1.77;;
31081;SDS011;17737;52.586;13.284;2023-02-15T01:34:23;2.30;;;1.92;;
31081;SDS011;17737;52.586;13.284;2023-02-15T01:36:52;2.03;;;1.50;;
31081;SDS011;17737;52.586;13.284;2023-02-15T01:39:20;2.95;;;2.17;;
31081;SDS011;17737;52.586;13.284;2023-02-15T01:41:48;2.75;;;2.00;;
31081;SDS011;17737;52.586;13.284;2023-02-15T01:47:26;2.83;;;2.00;;
31081;SDS011;17737;52.586;13.284;2023-02-15T01:50:06;2.97;;;1.95;;
31081;SDS011;17737;52.586;13.284;2023-02-15T01:52:44;3.03;;;2.03;;
31081;SDS011;17737;52.586;13.284;2023-02-15T01:55:18;2.50;;;2.08;;
31081;SDS011;17737;52.586;13.284;2023-02-15T01:57:48;2.92;;;2.20;;
31081;SDS011;17737;52.586;13.284;2023-02-15T02:00:17;2.67;;;2.03;;
31081;SDS011;17737;52.586;13.284;2023-02-15T02:02:48;2.88;;;1.60;;
31081;SDS011;17737;52.586;13.284;2023-02-15T02:05:22;2.95;;;1.95;;
31081;SDS011;17737;52.586;13.284;2023-02-15T02:07:53;3.13;;;2.05;;
31081;SDS011;17737;52.586;13.284;2023-02-15T02:10:28;2.88;;;1.98;;
31081;SDS011;17737;52.586;13.284;2023-02-15T02:12:58;3.33;;;2.10;;
31081;SDS011;17737;52.586;13.284;2023-02-15T02:15:38;2.75;;;2.00;;
31081;SDS011;17737;52.586;13.284;2023-02-15T02:18:19;3.10;;;2.35;;
31081;SDS011;17737;52.586;13.284;2023-02-15T02:24:27;2.85;;;1.95;;
31081;SDS011;17737;52.586;13.284;2023-02-15T02:27:32;3.17;;;2.40;;
31081;SDS011;17737;52.586;13.284;2023-02-15T02:30:12;3.00;;;2.22;;
31081;SDS011;17737;52.586;13.284;2023-02-15T02:33:20;3.95;;;2.30;;
31081;SDS011;17737;52.586;13.284;2023-02-15T02:36:12;3.30;;;2.17;;
31081;SDS011;17737;52.586;13.284;2023-02-15T02:38:57;2.97;;;2.08;;
31081;SDS011;17737;52.586;13.284;2023-02-15T02:41:43;3.60;;;2.38;;
31081;SDS011;17737;52.586;13.284;2023-02-15T02:44:23;3.70;;;2.55;;
31081;SDS011;17737;52.586;13.284;2023-02-15T02:46:59;2.80;;;2.38;;
31081;SDS011;17737;52.586;13.284;2023-02-15T02:49:39;3.30;;;2.55;;
31081;SDS011;17737;52.586;13.284;2023-02-15T02:55:09;3.10;;;2.38;;
31081;SDS011;17737;52.586;13.284;2023-02-15T02:57:50;2.83;;;2.15;;
31081;SDS011;17737;52.586;13.284;2023-02-15T03:00:23;3.22;;;2.30;;
31081;SDS011;17737;52.586;13.284;2023-02-15T03:02:59;3.35;;;2.53;;
31081;SDS011;17737;52.586;13.284;2023-02-15T03:05:35;4.03;;;2.80;;
31081;SDS011;17737;52.586;13.284;2023-02-15T03:08:11;3.10;;;2.30;;
31081;SDS011;17737;52.586;13.284;2023-02-15T03:10:48;4.32;;;2.95;;
31081;SDS011;17737;52.586;13.284;2023-02-15T03:13:22;3.58;;;2.45;;
31081;SDS011;17737;52.586;13.284;2023-02-15T03:15:51;4.20;;;3.05;;
31081;SDS011;17737;52.586;13.284;2023-02-15T03:18:39;3.85;;;2.85;;
31081;SDS011;17737;52.586;13.284;2023-02-15T03:21:20;4.07;;;3.13;;
31081;SDS011;17737;52.586;13.284;2023-02-15T03:23:56;3.60;;;2.80;;
31081;SDS011;17737;52.586;13.284;2023-02-15T03:26:31;4.07;;;3.20;;
31081;SDS011;17737;52.586;13.284;2023-02-15T03:29:03;4.20;;;3.03;;
31081;SDS011;17737;52.586;13.284;2023-02-15T03:31:36;4.13;;;3.10;;
31081;SDS011;17737;52.586;13.284;2023-02-15T03:34:10;3.20;;;2.60;;
31081;SDS011;17737;52.586;13.284;2023-02-15T03:36:45;4.20;;;3.03;;
31081;SDS011;17737;52.586;13.284;2023-02-15T03:39:20;4.30;;;3.10;;
31081;SDS011;17737;52.586;13.284;2023-02-15T03:41:58;3.97;;;2.80;;
31081;SDS011;17737;52.586;13.284;2023-02-15T03:47:15;3.97;;;2.85;;
31081;SDS011;17737;52.586;13.284;2023-02-15T03:49:49;4.53;;;3.13;;
31081;SDS011;17737;52.586;13.284;2023-02-15T03:52:26;3.85;;;2.70;;
31081;SDS011;17737;52.586;13.284;2023-02-15T03:54:58;3.80;;;3.00;;
31081;SDS011;17737;52.586;13.284;2023-02-15T03:57:27;3.60;;;2.60;;
31081;SDS011;17737;52.586;13.284;2023-02-15T04:00:14;4.10;;;3.00;;
31081;SDS011;17737;52.586;13.284;2023-02-15T04:05:49;4.25;;;2.88;;
31081;SDS011;17737;52.586;13.284;2023-02-15T04:08:18;4.43;;;3.38;;
31081;SDS011;17737;52.586;13.284;2023-02-15T04:10:46;4.32;;;3.15;;
31081;SDS011;17737;52.586;13.284;2023-02-15T04:13:20;4.60;;;3.30;;
31081;SDS011;17737;52.586;13.284;2023-02-15T04:15:50;4.68;;;3.80;;
31081;SDS011;17737;52.586;13.284;2023-02-15T04:18:31;5.15;;;3.72;;
31081;SDS011;17737;52.586;13.284;2023-02-15T04:21:19;4.40;;;3.30;;
31081;SDS011;17737;52.586;13.284;2023-02-15T04:24:08;4.40;;;3.28;;
31081;SDS011;17737;52.586;13.284;2023-02-15T04:26:55;5.30;;;3.67;;
31081;SDS011;17737;52.586;13.284;2023-02-15T04:29:26;4.72;;;3.53;;
31081;SDS011;17737;52.586;13.284;2023-02-15T04:32:18;4.95;;;3.70;;
31081;SDS011;17737;52.586;13.284;2023-02-15T04:34:46;5.95;;;3.63;;
31081;SDS011;17737;52.586;13.284;2023-02-15T04:37:14;6.32;;;4.45;;
31081;SDS011;17737;52.586;13.284;2023-02-15T04:39:43;4.53;;;3.40;;
31081;SDS011;17737;52.586;13.284;2023-02-15T04:44:39;5.00;;;3.85;;
31081;SDS011;17737;52.586;13.284;2023-02-15T04:47:08;5.20;;;3.63;;
31081;SDS011;17737;52.586;13.284;2023-02-15T04:49:36;5.82;;;3.92;;
31081;SDS011;17737;52.586;13.284;2023-02-15T04:52:04;5.28;;;3.90;;
31081;SDS011;17737;52.586;13.284;2023-02-15T04:54:32;6.20;;;4.28;;
31081;SDS011;17737;52.586;13.284;2023-02-15T04:57:03;5.20;;;4.00;;
31081;SDS011;17737;52.586;13.284;2023-02-15T04:59:32;5.30;;;4.32;;
31081;SDS011;17737;52.586;13.284;2023-02-15T05:02:00;4.93;;;3.63;;
31081;SDS011;17737;52.586;13.284;2023-02-15T05:04:29;4.72;;;3.58;;
31081;SDS011;17737;52.586;13.284;2023-02-15T05:06:57;5.28;;;3.90;;
31081;SDS011;17737;52.586;13.284;2023-02-15T05:09:25;5.00;;;3.63;;
31081;SDS011;17737;52.586;13.284;2023-02-15T05:11:53;5.50;;;4.18;;
31081;SDS011;17737;52.586;13.284;2023-02-15T05:14:22;5.68;;;4.15;;
31081;SDS011;17737;52.586;13.284;2023-02-15T05:16:50;4.60;;;3.58;;
31081;SDS011;17737;52.586;13.284;2023-02-15T05:21:49;4.90;;;3.58;;
31081;SDS011;17737;52.586;13.284;2023-02-15T05:24:17;4.82;;;3.53;;
31081;SDS011;17737;52.586;13.284;2023-02-15T05:27:02;4.90;;;3.83;;
31081;SDS011;17737;52.586;13.284;2023-02-15T05:29:49;6.07;;;3.90;;
31081;SDS011;17737;52.586;13.284;2023-02-15T05:32:18;5.60;;;4.38;;
31081;SDS011;17737;52.586;13.284;2023-02-15T05:34:46;4.75;;;4.05;;
31081;SDS011;17737;52.586;13.284;2023-02-15T05:37:14;5.50;;;4.35;;
31081;SDS011;17737;52.586;13.284;2023-02-15T05:39:42;4.63;;;3.58;;
31081;SDS011;17737;52.586;13.284;2023-02-15T05:42:10;4.82;;;4.05;;
31081;SDS011;17737;52.586;13.284;2023-02-15T05:44:38;5.55;;;4.40;;
31081;SDS011;17737;52.586;13.284;2023-02-15T05:47:07;5.63;;;4.28;;
31081;SDS011;17737;52.586;13.284;2023-02-15T05:49:35;5.25;;;4.38;;
31081;SDS011;17737;52.586;13.284;2023-02-15T05:52:03;4.97;;;3.75;;
31081;SDS011;17737;52.586;13.284;2023-02-15T05:54:31;5.72;;;3.85;;
31081;SDS011;17737;52.586;13.284;2023-02-15T05:56:59;5.68;;;4.05;;
31081;SDS011;17737;52.586;13.284;2023-02-15T05:59:27;4.97;;;3.80;;
31081;SDS011;17737;52.586;13.284;2023-02-15T06:01:55;5.55;;;3.97;;
31081;SDS011;17737;52.586;13.284;2023-02-15T06:04:25;5.03;;;4.18;;
31081;SDS011;17737;52.586;13.284;2023-02-15T06:06:53;5.13;;;4.25;;
31081;SDS011;17737;52.586;13.284;2023-02-15T06:09:21;5.35;;;4.25;;
31081;SDS011;17737;52.586;13.284;2023-02-15T06:11:49;6.10;;;4.43;;
31081;SDS011;17737;52.586;13.284;2023-02-15T06:14:17;5.00;;;4.03;;
31081;SDS011;17737;52.586;13.284;2023-02-15T06:16:45;4.68;;;3.60;;
31081;SDS011;17737;52.586;13.284;2023-02-15T06:19:13;5.03;;;3.70;;
31081;SDS011;17737;52.586;13.284;2023-02-15T06:21:43;5.40;;;4.13;;
31081;SDS011;17737;52.586;13.284;2023-02-15T06:24:11;5.47;;;3.72;;
31081;SDS011;17737;52.586;13.284;2023-02-15T06:26:39;5.43;;;3.85;;
31081;SDS011;17737;52.586;13.284;2023-02-15T06:29:07;4.38;;;3.58;;
31081;SDS011;17737;52.586;13.284;2023-02-15T06:31:36;5.30;;;4.03;;
31081;SDS011;17737;52.586;13.284;2023-02-15T06:34:04;4.70;;;4.00;;
31081;SDS011;17737;52.586;13.284;2023-02-15T06:36:32;5.13;;;3.65;;
31081;SDS011;17737;52.586;13.284;2023-02-15T06:39:02;5.40;;;4.00;;
31081;SDS011;17737;52.586;13.284;2023-02-15T06:41:30;5.15;;;3.67;;
31081;SDS011;17737;52.586;13.284;2023-02-15T06:43:58;4.28;;;3.38;;
31081;SDS011;17737;52.586;13.284;2023-02-15T06:46:26;4.57;;;3.70;;
31081;SDS011;17737;52.586;13.284;2023-02-15T06:48:55;4.30;;;3.30;;
31081;SDS011;17737;52.586;13.284;2023-02-15T06:51:23;4.50;;;3.50;;
31081;SDS011;17737;52.586;13.284;2023-02-15T06:53:51;5.85;;;3.88;;
31081;SDS011;17737;52.586;13.284;2023-02-15T06:56:20;4.35;;;3.30;;
31081;SDS011;17737;52.586;13.284;2023-02-15T07:01:18;5.32;;;3.22;;
31081;SDS011;17737;52.586;13.284;2023-02-15T07:03:46;4.55;;;3.10;;
31081;SDS011;17737;52.586;13.284;2023-02-15T07:06:14;4.50;;;3.63;;
31081;SDS011;17737;52.586;13.284;2023-02-15T07:08:42;4.30;;;3.35;;
31081;SDS011;17737;52.586;13.284;2023-02-15T07:11:11;4.88;;;3.25;;
31081;SDS011;17737;52.586;13.284;2023-02-15T07:13:58;4.10;;;3.15;;
31081;SDS011;17737;52.586;13.284;2023-02-15T07:16:26;5.32;;;3.35;;
31081;SDS011;17737;52.586;13.284;2023-02-15T07:18:54;3.63;;;2.80;;
31081;SDS011;17737;52.586;13.284;2023-02-15T07:21:22;3.80;;;3.00;;
31081;SDS011;17737;52.586;13.284;2023-02-15T07:23:50;4.43;;;3.33;;
31081;SDS011;17737;52.586;13.284;2023-02-15T07:26:19;4.32;;;3.22;;
31081;SDS011;17737;52.586;13.284;2023-02-15T07:28:47;4.07;;;3.15;;
31081;SDS011;17737;52.586;13.284;2023-02-15T07:31:16;4.25;;;3.38;;
31081;SDS011;17737;52.586;13.284;2023-02-15T07:36:12;3.97;;;2.90;;
31081;SDS011;17737;52.586;13.284;2023-02-15T07:38:40;4.43;;;2.80;;
31081;SDS011;17737;52.586;13.284;2023-02-15T07:41:09;4.33;;;3.03;;
31081;SDS011;17737;52.586;13.284;2023-02-15T07:43:40;4.43;;;3.28;;
31081;SDS011;17737;52.586;13.284;2023-02-15T07:46:11;3.70;;;2.70;;
31081;SDS011;17737;52.586;13.284;2023-02-15T07:48:44;3.53;;;2.85;;
31081;SDS011;17737;52.586;13.284;2023-02-15T07:51:13;3.75;;;3.03;;
31081;SDS011;17737;52.586;13.284;2023-02-15T07:53:42;3.63;;;2.70;;
31081;SDS011;17737;52.586;13.284;2023-02-15T07:56:11;3.70;;;2.50;;
31081;SDS011;17737;52.586;13.284;2023-02-15T07:58:41;3.85;;;2.65;;
31081;SDS011;17737;52.586;13.284;2023-02-15T08:01:24;3.60;;;2.40;;
31081;SDS011;17737;52.586;13.284;2023-02-15T08:03:55;3.55;;;2.80;;
31081;SDS011;17737;52.586;13.284;2023-02-15T08:06:24;3.70;;;2.70;;
31081;SDS011;17737;52.586;13.284;2023-02-15T08:08:55;3.22;;;2.40;;
31081;SDS011;17737;52.586;13.284;2023-02-15T08:11:24;2.83;;;2.28;;
31081;SDS011;17737;52.586;13.284;2023-02-15T08:14:00;3.22;;;2.40;;
31081;SDS011;17737;52.586;13.284;2023-02-15T08:16:32;2.85;;;2.22;;
31081;SDS011;17737;52.586;13.284;2023-02-15T08:19:05;3.20;;;2.40;;
31081;SDS011;17737;52.586;13.284;2023-02-15T08:21:36;2.85;;;2.05;;
31081;SDS011;17737;52.586;13.284;2023-02-15T08:24:07;2.92;;;2.25;;
31081;SDS011;17737;52.586;13.284;2023-02-15T08:26:37;3.30;;;2.45;;
31081;SDS011;17737;52.586;13.284;2023-02-15T08:29:09;3.08;;;2.05;;
31081;SDS011;17737;52.586;13.284;2023-02-15T08:31:38;3.40;;;2.50;;
31081;SDS011;17737;52.586;13.284;2023-02-15T08:34:09;3.35;;;2.17;;
31081;SDS011;17737;52.586;13.284;2023-02-15T08:36:38;2.88;;;2.22;;
31081;SDS011;17737;52.586;13.284;2023-02-15T08:39:06;2.58;;;2.08;;
31081;SDS011;17737;52.586;13.284;2023-02-15T08:41:36;2.60;;;1.85;;
31081;SDS011;17737;52.586;13.284;2023-02-15T08:44:07;2.78;;;2.08;;
31081;SDS011;17737;52.586;13.284;2023-02-15T08:46:37;2.42;;;1.77;;
31081;SDS011;17737;52.586;13.284;2023-02-15T08:49:10;3.30;;;2.30;;
31081;SDS011;17737;52.586;13.284;2023-02-15T08:51:42;2.63;;;1.80;;
31081;SDS011;17737;52.586;13.284;2023-02-15T08:54:11;2.55;;;1.90;;
31081;SDS011;17737;52.586;13.284;2023-02-15T08:56:43;2.55;;;1.80;;
31081;SDS011;17737;52.586;13.284;2023-02-15T08:59:12;2.13;;;1.80;;
31081;SDS011;17737;52.586;13.284;2023-02-15T09:01:43;2.13;;;1.67;;
31081;SDS011;17737;52.586;13.284;2023-02-15T09:04:14;1.98;;;1.70;;
31081;SDS011;17737;52.586;13.284;2023-02-15T09:06:43;2.25;;;1.75;;
31081;SDS011;17737;52.586;13.284;2023-02-15T09:09:15;2.53;;;1.85;;
31081;SDS011;17737;52.586;13.284;2023-02-15T09:11:44;1.95;;;1.55;;
31081;SDS011;17737;52.586;13.284;2023-02-15T09:14:15;2.03;;;1.60;;
31081;SDS011;17737;52.586;13.284;2023-02-15T09:16:46;1.75;;;1.50;;
31081;SDS011;17737;52.586;13.284;2023-02-15T09:19:20;1.92;;;1.50;;
31081;SDS011;17737;52.586;13.284;2023-02-15T09:21:49;2.28;;;1.75;;
31081;SDS011;17737;52.586;13.284;2023-02-15T09:24:17;1.75;;;1.48;;
31081;SDS011;17737;52.586;13.284;2023-02-15T09:26:46;1.65;;;1.30;;
31081;SDS011;17737;52.586;13.284;2023-02-15T09:31:45;1.52;;;1.38;;
31081;SDS011;17737;52.586;13.284;2023-02-15T09:34:17;1.30;;;1.20;;
31081;SDS011;17737;52.586;13.284;2023-02-15T09:36:49;1.17;;;1.02;;
31081;SDS011;17737;52.586;13.284;2023-02-15T09:39:19;1.30;;;1.13;;
31081;SDS011;17737;52.586;13.284;2023-02-15T09:45:15;1.40;;;1.20;;
31081;SDS011;17737;52.586;13.284;2023-02-15T09:48:04;1.02;;;0.90;;
31081;SDS011;17737;52.586;13.284;2023-02-15T09:54:41;0.80;;;0.80;;
31081;SDS011;17737;52.586;13.284;2023-02-15T09:57:27;1.20;;;1.10;;
31081;SDS011;17737;52.586;13.284;2023-02-15T10:00:07;1.10;;;1.00;;
31081;SDS011;17737;52.586;13.284;2023-02-15T10:02:56;0.80;;;0.80;;
31081;SDS011;17737;52.586;13.284;2023-02-15T10:05:50;0.88;;;0.80;;
31081;SDS011;17737;52.586;13.284;2023-02-15T10:08:40;0.80;;;0.80;;
31081;SDS011;17737;52.586;13.284;2023-02-15T10:11:39;0.70;;;0.70;;
31081;SDS011;17737;52.586;13.284;2023-02-15T10:17:41;0.90;;;0.80;;
31081;SDS011;17737;52.586;13.284;2023-02-15T10:20:27;0.80;;;0.80;;
31081;SDS011;17737;52.586;13.284;2023-02-15T10:23:21;0.90;;;0.80;;
31081;SDS011;17737;52.586;13.284;2023-02-15T10:26:13;1.00;;;0.98;;
31081;SDS011;17737;52.586;13.284;2023-02-15T10:28:46;0.80;;;0.80;;
31081;SDS011;17737;52.586;13.284;2023-02-15T10:31:24;1.20;;;1.10;;
31081;SDS011;17737;52.586;13.284;2023-02-15T10:34:04;1.27;;;0.90;;
31081;SDS011;17737;52.586;13.284;2023-02-15T10:40:28;0.80;;;0.70;;
31081;SDS011;17737;52.586;13.284;2023-02-15T10:43:12;0.82;;;0.82;;
31081;SDS011;17737;52.586;13.284;2023-02-15T10:45:58;1.02;;;0.93;;
31081;SDS011;17737;52.586;13.284;2023-02-15T10:51:53;0.80;;;0.80;;
31081;SDS011;17737;52.586;13.284;2023-02-15T10:54:44;0.70;;;0.70;;
31081;SDS011;17737;52.586;13.284;2023-02-15T10:57:22;1.25;;;0.73;;
31081;SDS011;17737;52.586;13.284;2023-02-15T11:00:07;0.77;;;0.77;;
31081;SDS011;17737;52.586;13.284;2023-02-15T11:02:46;1.00;;;0.90;;
31081;SDS011;17737;52.586;13.284;2023-02-15T11:05:38;1.10;;;1.00;;
31081;SDS011;17737;52.586;13.284;2023-02-15T11:08:21;0.65;;;0.65;;
31081;SDS011;17737;52.586;13.284;2023-02-15T11:10:54;0.60;;;0.60;;
31081;SDS011;17737;52.586;13.284;2023-02-15T11:13:31;0.80;;;0.80;;
31081;SDS011;17737;52.586;13.284;2023-02-15T11:16:10;0.68;;;0.68;;
31081;SDS011;17737;52.586;13.284;2023-02-15T11:18:45;1.00;;;0.90;;
31081;SDS011;17737;52.586;13.284;2023-02-15T11:21:22;1.13;;;0.82;;
31081;SDS011;17737;52.586;13.284;2023-02-15T11:23:55;1.23;;;0.90;;
31081;SDS011;17737;52.586;13.284;2023-02-15T11:26:25;0.60;;;0.60;;
31081;SDS011;17737;52.586;13.284;2023-02-15T11:29:01;1.17;;;0.90;;
31081;SDS011;17737;52.586;13.284;2023-02-15T11:31:43;0.80;;;0.80;;
31081;SDS011;17737;52.586;13.284;2023-02-15T11:34:17;0.60;;;0.60;;
31081;SDS011;17737;52.586;13.284;2023-02-15T11:36:54;0.82;;;0.70;;
31081;SDS011;17737;52.586;13.284;2023-02-15T11:39:29;0.60;;;0.60;;
31081;SDS011;17737;52.586;13.284;2023-02-15T11:42:00;0.80;;;0.80;;
31081;SDS011;17737;52.586;13.284;2023-02-15T11:44:41;0.95;;;0.90;;
31081;SDS011;17737;52.586;13.284;2023-02-15T11:47:27;0.60;;;0.60;;
31081;SDS011;17737;52.586;13.284;2023-02-15T11:49:56;0.70;;;0.70;;
31081;SDS011;17737;52.586;13.284;2023-02-15T11:52:24;0.60;;;0.60;;
31081;SDS011;17737;52.586;13.284;2023-02-15T11:54:53;0.77;;;0.60;;
31081;SDS011;17737;52.586;13.284;2023-02-15T11:57:23;0.73;;;0.73;;
31081;SDS011;17737;52.586;13.284;2023-02-15T12:00:00;0.70;;;0.70;;
31081;SDS011;17737;52.586;13.284;2023-02-15T12:02:42;0.55;;;0.55;;
31081;SDS011;17737;52.586;13.284;2023-02-15T12:05:20;0.70;;;0.70;;
31081;SDS011;17737;52.586;13.284;2023-02-15T12:07:52;0.60;;;0.60;;
31081;SDS011;17737;52.586;13.284;2023-02-15T12:10:28;0.80;;;0.80;;
31081;SDS011;17737;52.586;13.284;2023-02-15T12:13:10;0.57;;;0.57;;
31081;SDS011;17737;52.586;13.284;2023-02-15T12:15:42;0.60;;;0.60;;
31081;SDS011;17737;52.586;13.284;2023-02-15T12:18:20;0.70;;;0.70;;
31081;SDS011;17737;52.586;13.284;2023-02-15T12:21:02;0.63;;;0.63;;
31081;SDS011;17737;52.586;13.284;2023-02-15T12:23:39;0.73;;;0.73;;
31081;SDS011;17737;52.586;13.284;2023-02-15T12:26:15;0.60;;;0.60;;
31081;SDS011;17737;52.586;13.284;2023-02-15T12:28:52;0.40;;;0.40;;
31081;SDS011;17737;52.586;13.284;2023-02-15T12:31:24;0.52;;;0.52;;
31081;SDS011;17737;52.586;13.284;2023-02-15T12:34:01;0.60;;;0.60;;
31081;SDS011;17737;52.586;13.284;2023-02-15T12:36:40;0.70;;;0.70;;
31081;SDS011;17737;52.586;13.284;2023-02-15T12:39:17;0.73;;;0.68;;
31081;SDS011;17737;52.586;13.284;2023-02-15T12:44:56;1.13;;;0.70;;
31081;SDS011;17737;52.586;13.284;2023-02-15T12:47:27;0.52;;;0.52;;
31081;SDS011;17737;52.586;13.284;2023-02-15T12:50:06;0.60;;;0.60;;
31081;SDS011;17737;52.586;13.284;2023-02-15T12:52:46;0.50;;;0.50;;
31081;SDS011;17737;52.586;13.284;2023-02-15T12:55:21;0.60;;;0.60;;
31081;SDS011;17737;52.586;13.284;2023-02-15T12:58:12;0.40;;;0.40;;
31081;SDS011;17737;52.586;13.284;2023-02-15T13:00:45;0.47;;;0.47;;
31081;SDS011;17737;52.586;13.284;2023-02-15T13:03:15;0.47;;;0.47;;
31081;SDS011;17737;52.586;13.284;2023-02-15T13:05:49;0.50;;;0.50;;
31081;SDS011;17737;52.586;13.284;2023-02-15T13:08:21;0.52;;;0.52;;
31081;SDS011;17737;52.586;13.284;2023-02-15T13:10:56;0.57;;;0.57;;
31081;SDS011;17737;52.586;13.284;2023-02-15T13:13:27;0.50;;;0.50;;
31081;SDS011;17737;52.586;13.284;2023-02-15T13:15:58;0.60;;;0.60;;
31081;SDS011;17737;52.586;13.284;2023-02-15T13:18:34;0.50;;;0.50;;
31081;SDS011;17737;52.586;13.284;2023-02-15T13:21:09;0.40;;;0.40;;
31081;SDS011;17737;52.586;13.284;2023-02-15T13:23:42;0.40;;;0.40;;
31081;SDS011;17737;52.586;13.284;2023-02-15T13:26:16;0.40;;;0.40;;
31081;SDS011;17737;52.586;13.284;2023-02-15T13:28:49;0.50;;;0.50;;
31081;SDS011;17737;52.586;13.284;2023-02-15T13:31:24;0.50;;;0.50;;
31081;SDS011;17737;52.586;13.284;2023-02-15T13:33:59;0.45;;;0.45;;
31081;SDS011;17737;52.586;13.284;2023-02-15T13:36:40;0.60;;;0.60;;
31081;SDS011;17737;52.586;13.284;2023-02-15T13:39:20;0.40;;;0.40;;
31081;SDS011;17737;52.586;13.284;2023-02-15T13:41:57;0.50;;;0.50;;
31081;SDS011;17737;52.586;13.284;2023-02-15T13:44:43;0.50;;;0.47;;
31081;SDS011;17737;52.586;13.284;2023-02-15T13:47:38;0.40;;;0.40;;
31081;SDS011;17737;52.586;13.284;2023-02-15T13:50:28;0.50;;;0.50;;
31081;SDS011;17737;52.586;13.284;2023-02-15T13:53:21;0.40;;;0.40;;
31081;SDS011;17737;52.586;13.284;2023-02-15T13:56:12;0.47;;;0.45;;
31081;SDS011;17737;52.586;13.284;2023-02-15T13:58:56;0.40;;;0.40;;
31081;SDS011;17737;52.586;13.284;2023-02-15T14:01:50;0.43;;;0.43;;
31081;SDS011;17737;52.586;13.284;2023-02-15T14:07:37;0.40;;;0.40;;
31081;SDS011;17737;52.586;13.284;2023-02-15T14:10:29;0.30;;;0.30;;
31081;SDS011;17737;52.586;13.284;2023-02-15T14:16:41;0.57;;;0.45;;
31081;SDS011;17737;52.586;13.284;2023-02-15T14:19:34;0.35;;;0.35;;
31081;SDS011;17737;52.586;13.284;2023-02-15T14:22:10;0.47;;;0.47;;
31081;SDS011;17737;52.586;13.284;2023-02-15T14:24:54;0.38;;;0.38;;
31081;SDS011;17737;52.586;13.284;2023-02-15T14:27:47;0.38;;;0.38;;
31081;SDS011;17737;52.586;13.284;2023-02-15T14:30:26;0.40;;;0.40;;
31081;SDS011;17737;52.586;13.284;2023-02-15T14:33:01;0.30;;;0.30;;
31081;SDS011;17737;52.586;13.284;2023-02-15T14:35:35;0.40;;;0.40;;
31081;SDS011;17737;52.586;13.284;2023-02-15T14:38:06;0.38;;;0.38;;
31081;SDS011;17737;52.586;13.284;2023-02-15T14:40:48;0.50;;;0.50;;
31081;SDS011;17737;52.586;13.284;2023-02-15T14:43:40;0.40;;;0.40;;
31081;SDS011;17737;52.586;13.284;2023-02-15T14:46:24;0.43;;;0.43;;
31081;SDS011;17737;52.586;13.284;2023-02-15T14:49:05;0.88;;;0.60;;
31081;SDS011;17737;52.586;13.284;2023-02-15T14:51:55;0.40;;;0.40;;
31081;SDS011;17737;52.586;13.284;2023-02-15T14:57:25;0.40;;;0.40;;
31081;SDS011;17737;52.586;13.284;2023-02-15T15:00:04;0.45;;;0.45;;
31081;SDS011;17737;52.586;13.284;2023-02-15T15:03:09;0.30;;;0.30;;
31081;SDS011;17737;52.586;13.284;2023-02-15T15:05:48;0.40;;;0.40;;
31081;SDS011;17737;52.586;13.284;2023-02-15T15:08:22;0.30;;;0.30;;
31081;SDS011;17737;52.586;13.284;2023-02-15T15:14:10;0.50;;;0.50;;
31081;SDS011;17737;52.586;13.284;2023-02-15T15:17:12;0.40;;;0.40;;
31081;SDS011;17737;52.586;13.284;2023-02-15T15:23:37;0.40;;;0.40;;
31081;SDS011;17737;52.586;13.284;2023-02-15T15:26:21;0.50;;;0.50;;
31081;SDS011;17737;52.586;13.284;2023-02-15T15:28:56;0.40;;;0.40;;
31081;SDS011;17737;52.586;13.284;2023-02-15T15:31:37;0.50;;;0.50;;
31081;SDS011;17737;52.586;13.284;2023-02-15T15:34:23;0.40;;;0.40;;
31081;SDS011;17737;52.586;13.284;2023-02-15T15:37:35;0.30;;;0.30;;
31081;SDS011;17737;52.586;13.284;2023-02-15T15:40:41;0.30;;;0.30;;
31081;SDS011;17737;52.586;13.284;2023-02-15T15:47:02;0.40;;;0.40;;
31081;SDS011;17737;52.586;13.284;2023-02-15T15:49:56;0.40;;;0.40;;
31081;SDS011;17737;52.586;13.284;2023-02-15T15:52:26;0.20;;;0.20;;
31081;SDS011;17737;52.586;13.284;2023-02-15T15:55:02;0.50;;;0.50;;
31081;SDS011;17737;52.586;13.284;2023-02-15T15:57:44;0.35;;;0.35;;
31081;SDS011;17737;52.586;13.284;2023-02-15T16:00:30;0.40;;;0.40;;
31081;SDS011;17737;52.586;13.284;2023-02-15T16:03:04;0.50;;;0.50;;
31081;SDS011;17737;52.586;13.284;2023-02-15T16:05:38;0.40;;;0.40;;
31081;SDS011;17737;52.586;13.284;2023-02-15T16:08:06;0.50;;;0.50;;
31081;SDS011;17737;52.586;13.284;2023-02-15T16:10:34;0.57;;;0.50;;
31081;SDS011;17737;52.586;13.284;2023-02-15T16:13:04;0.50;;;0.50;;
31081;SDS011;17737;52.586;13.284;2023-02-15T16:15:35;0.50;;;0.50;;
31081;SDS011;17737;52.586;13.284;2023-02-15T16:18:13;0.40;;;0.40;;
31081;SDS011;17737;52.586;13.284;2023-02-15T16:20:49;0.47;;;0.47;;
31081;SDS011;17737;52.586;13.284;2023-02-15T16:23:35;0.63;;;0.55;;
31081;SDS011;17737;52.586;13.284;2023-02-15T16:26:32;0.50;;;0.50;;
31081;SDS011;17737;52.586;13.284;2023-02-15T16:29:26;0.50;;;0.50;;
31081;SDS011;17737;52.586;13.284;2023-02-15T16:31:57;0.60;;;0.60;;